createdAt,value
2023-05-19T00:01:01.107Z,2.97
2023-05-19T00:03:28.522Z,3.03
2023-05-19T00:05:58.411Z,2.97
2023-05-19T00:08:30.702Z,3.28
2023-05-19T00:10:57.848Z,3.03
2023-05-19T00:13:25.303Z,3.70
2023-05-19T00:15:52.824Z,3.60
2023-05-19T00:18:19.567Z,3.73
2023-05-19T00:20:46.296Z,3.13
2023-05-19T00:23:12.856Z,2.80
2023-05-19T00:25:40.905Z,3.10
2023-05-19T00:28:07.442Z,2.90
2023-05-19T00:30:34.257Z,2.90
2023-05-19T00:33:01.106Z,2.77
2023-05-19T00:35:27.687Z,3.03
2023-05-19T00:37:54.250Z,2.70
2023-05-19T00:40:21.734Z,2.85
2023-05-19T00:42:49.595Z,3.15
2023-05-19T00:45:16.112Z,2.90
2023-05-19T00:47:42.969Z,3.00
2023-05-19T00:50:10.324Z,3.10
2023-05-19T00:52:37.066Z,2.90
2023-05-19T00:55:04.037Z,2.85
2023-05-19T00:57:30.781Z,2.67
2023-05-19T00:59:58.986Z,2.70
2023-05-19T01:02:25.620Z,2.90
2023-05-19T01:04:52.371Z,2.83
2023-05-19T01:07:19.166Z,2.90
2023-05-19T01:09:47.152Z,2.70
2023-05-19T01:12:14.263Z,2.88
2023-05-19T01:14:41.328Z,2.90
2023-05-19T01:17:16.086Z,2.93
2023-05-19T01:19:57.387Z,3.13
2023-05-19T01:22:39.767Z,2.92
2023-05-19T01:25:36.051Z,2.78
2023-05-19T01:28:32.737Z,3.10
2023-05-19T01:31:01.719Z,3.20
2023-05-19T01:33:30.839Z,3.23
2023-05-19T01:35:59.003Z,2.85
2023-05-19T01:38:28.147Z,2.90
2023-05-19T01:40:56.369Z,2.72
2023-05-19T01:43:26.269Z,3.30
2023-05-19T01:45:53.625Z,2.63
2023-05-19T01:48:22.683Z,2.70
2023-05-19T01:50:49.358Z,2.92
2023-05-19T01:53:16.050Z,2.88
2023-05-19T01:55:44.518Z,2.85
2023-05-19T01:58:18.409Z,2.97
2023-05-19T02:00:53.382Z,2.93
2023-05-19T02:03:53.964Z,2.70
2023-05-19T02:06:32.864Z,3.00
2023-05-19T02:09:04.040Z,2.90
2023-05-19T02:11:36.651Z,3.00
2023-05-19T02:14:08.586Z,2.97
2023-05-19T02:16:36.502Z,3.03
2023-05-19T02:19:04.806Z,2.90
2023-05-19T02:21:31.546Z,2.90
2023-05-19T02:23:58.372Z,3.00
2023-05-19T02:26:25.221Z,2.65
2023-05-19T02:28:51.729Z,3.03
2023-05-19T02:31:18.463Z,2.77
2023-05-19T02:33:45.051Z,2.78
2023-05-19T02:36:12.998Z,3.00
2023-05-19T02:38:39.568Z,2.58
2023-05-19T02:41:06.375Z,2.78
2023-05-19T02:43:33.038Z,2.70
2023-05-19T02:45:59.610Z,3.17
2023-05-19T02:48:26.273Z,2.70
2023-05-19T02:50:52.836Z,3.00
2023-05-19T02:53:20.947Z,3.22
2023-05-19T02:55:47.563Z,2.83
2023-05-19T02:58:14.066Z,3.00
2023-05-19T03:00:40.566Z,2.70
2023-05-19T03:03:07.282Z,2.88
2023-05-19T03:05:33.926Z,2.85
2023-05-19T03:08:00.587Z,2.88
2023-05-19T03:10:28.511Z,2.90
2023-05-19T03:12:55.072Z,3.33
2023-05-19T03:15:21.579Z,3.07
2023-05-19T03:17:48.391Z,2.63
2023-05-19T03:20:15.282Z,2.80
2023-05-19T03:22:41.878Z,2.88
2023-05-19T03:25:09.241Z,3.05
2023-05-19T03:27:37.343Z,2.70
2023-05-19T03:30:06.478Z,2.97
2023-05-19T03:32:33.439Z,2.88
2023-05-19T03:35:00.033Z,3.08
2023-05-19T03:37:26.716Z,2.92
2023-05-19T03:39:53.838Z,2.60
2023-05-19T03:42:20.394Z,2.87
2023-05-19T03:44:48.461Z,2.70
2023-05-19T03:47:15.046Z,3.03
2023-05-19T03:49:41.617Z,3.25
2023-05-19T03:52:08.148Z,3.42
2023-05-19T03:54:34.751Z,2.90
2023-05-19T03:57:01.435Z,2.85
2023-05-19T03:59:28.166Z,2.97
2023-05-19T04:01:56.037Z,2.80
2023-05-19T04:04:22.834Z,3.38
2023-05-19T04:06:49.545Z,3.03
2023-05-19T04:09:16.315Z,3.10
2023-05-19T04:11:43.110Z,3.20
2023-05-19T04:14:09.781Z,3.20
2023-05-19T04:16:36.510Z,3.17
2023-05-19T04:19:04.699Z,3.20
2023-05-19T04:21:31.510Z,3.40
2023-05-19T04:23:58.129Z,3.38
2023-05-19T04:26:24.884Z,3.17
2023-05-19T04:28:51.395Z,3.40
2023-05-19T04:31:18.143Z,3.70
2023-05-19T04:33:44.743Z,3.07
2023-05-19T04:36:12.648Z,2.93
2023-05-19T04:38:40.115Z,3.47
2023-05-19T04:41:06.873Z,2.88
2023-05-19T04:43:33.408Z,2.90
2023-05-19T04:46:00.007Z,2.90
2023-05-19T04:48:26.580Z,3.07
2023-05-19T04:50:53.216Z,3.60
2023-05-19T04:53:21.116Z,4.40
2023-05-19T04:55:47.718Z,6.22
2023-05-19T04:58:14.329Z,3.90
2023-05-19T05:00:41.024Z,3.88
2023-05-19T05:03:07.978Z,3.37
2023-05-19T05:05:35.136Z,3.70
2023-05-19T05:08:01.913Z,3.47
2023-05-19T05:10:29.976Z,3.40
2023-05-19T05:12:57.118Z,3.38
2023-05-19T05:15:24.129Z,3.27
2023-05-19T05:17:51.194Z,3.13
2023-05-19T05:20:18.560Z,3.95
2023-05-19T05:22:45.639Z,3.75
2023-05-19T05:25:13.965Z,3.28
2023-05-19T05:27:42.021Z,3.40
2023-05-19T05:30:09.234Z,3.38
2023-05-19T05:32:36.028Z,3.00
2023-05-19T05:35:02.884Z,3.65
2023-05-19T05:37:30.583Z,3.63
2023-05-19T05:39:57.189Z,2.93
2023-05-19T05:42:23.905Z,3.47
2023-05-19T05:44:52.029Z,3.75
2023-05-19T05:47:19.108Z,3.70
2023-05-19T05:49:46.235Z,3.55
2023-05-19T05:52:13.021Z,3.28
2023-05-19T05:54:40.286Z,4.00
2023-05-19T05:57:07.825Z,4.20
2023-05-19T05:59:34.401Z,3.85
2023-05-19T06:02:02.713Z,4.80
2023-05-19T06:04:29.488Z,4.30
2023-05-19T06:06:56.073Z,4.30
2023-05-19T06:09:25.449Z,3.53
2023-05-19T06:11:52.165Z,3.70
2023-05-19T06:14:18.680Z,3.28
2023-05-19T06:16:45.195Z,3.58
2023-05-19T06:19:13.674Z,3.67
2023-05-19T06:21:40.408Z,3.70
2023-05-19T06:24:07.425Z,3.80
2023-05-19T06:26:34.003Z,3.53
2023-05-19T06:29:00.563Z,3.65
2023-05-19T06:31:27.172Z,3.45
2023-05-19T06:33:53.880Z,3.80
2023-05-19T06:36:21.908Z,3.50
2023-05-19T06:38:48.582Z,3.40
2023-05-19T06:41:15.214Z,3.40
2023-05-19T06:43:42.245Z,3.45
2023-05-19T06:46:08.829Z,3.50
2023-05-19T06:48:35.496Z,3.40
2023-05-19T06:51:02.027Z,3.10
2023-05-19T06:53:30.149Z,3.38
2023-05-19T06:55:59.976Z,3.67
2023-05-19T06:58:27.080Z,3.63
2023-05-19T07:00:53.676Z,3.40
2023-05-19T07:03:20.266Z,4.00
2023-05-19T07:05:46.945Z,4.17
2023-05-19T07:08:13.656Z,3.28
2023-05-19T07:10:41.546Z,3.08
2023-05-19T07:13:08.081Z,3.45
2023-05-19T07:15:34.634Z,3.50
2023-05-19T07:18:01.234Z,3.33
2023-05-19T07:20:27.972Z,4.30
2023-05-19T07:22:54.549Z,4.85
2023-05-19T07:25:21.251Z,4.70
2023-05-19T07:27:49.119Z,4.63
2023-05-19T07:30:15.782Z,4.03
2023-05-19T07:32:42.388Z,3.70
2023-05-19T07:35:09.213Z,3.50
2023-05-19T07:37:35.795Z,3.72
2023-05-19T07:40:02.417Z,3.42
2023-05-19T07:42:29.160Z,3.28
2023-05-19T07:44:57.073Z,3.20
2023-05-19T07:47:23.787Z,2.70
2023-05-19T07:49:51.809Z,3.03
2023-05-19T07:52:18.691Z,2.70
2023-05-19T07:54:45.806Z,2.00
2023-05-19T07:57:12.523Z,2.50
2023-05-19T07:59:39.052Z,2.50
2023-05-19T08:02:07.484Z,2.28
2023-05-19T08:04:34.114Z,2.20
2023-05-19T08:07:00.703Z,1.88
2023-05-19T08:09:27.259Z,2.13
2023-05-19T08:11:54.027Z,2.03
2023-05-19T08:14:20.689Z,1.63
2023-05-19T08:16:47.256Z,1.80
2023-05-19T08:19:15.416Z,2.25
2023-05-19T08:21:41.954Z,1.90
2023-05-19T08:24:08.982Z,1.98
2023-05-19T08:26:37.598Z,2.10
2023-05-19T08:29:04.777Z,1.70
2023-05-19T08:31:31.759Z,1.85
2023-05-19T08:33:58.378Z,2.00
2023-05-19T08:36:26.436Z,1.65
2023-05-19T08:38:52.986Z,2.57
2023-05-19T08:41:19.707Z,1.90
2023-05-19T08:43:46.240Z,1.70
2023-05-19T08:46:14.188Z,2.20
2023-05-19T08:48:44.112Z,2.15
2023-05-19T08:51:23.003Z,2.07
2023-05-19T08:53:53.259Z,2.30
2023-05-19T08:56:21.974Z,2.35
2023-05-19T08:58:50.740Z,2.75
2023-05-19T09:01:19.413Z,2.20
2023-05-19T09:03:47.318Z,2.10
2023-05-19T09:06:14.034Z,2.00
2023-05-19T09:08:41.348Z,2.28
2023-05-19T09:11:10.426Z,2.25
2023-05-19T09:13:37.207Z,2.00
2023-05-19T09:16:04.357Z,2.07
2023-05-19T09:18:31.417Z,2.00
2023-05-19T09:20:59.209Z,1.90
2023-05-19T09:23:27.844Z,1.92
2023-05-19T09:25:54.477Z,2.03
2023-05-19T09:28:26.820Z,2.10
2023-05-19T09:31:01.090Z,2.22
2023-05-19T09:33:27.834Z,2.05
2023-05-19T09:35:54.978Z,2.60
2023-05-19T09:38:22.208Z,2.70
2023-05-19T09:40:49.039Z,2.30
2023-05-19T09:43:15.649Z,2.30
2023-05-19T09:45:43.531Z,1.98
2023-05-19T09:48:10.103Z,1.98
2023-05-19T09:50:37.302Z,2.50
2023-05-19T09:53:03.959Z,1.90
2023-05-19T09:55:31.081Z,2.10
2023-05-19T09:57:57.864Z,2.20
2023-05-19T10:00:24.766Z,1.90
2023-05-19T10:02:53.796Z,2.03
2023-05-19T10:05:20.866Z,2.50
2023-05-19T10:07:50.757Z,2.10
2023-05-19T10:10:17.808Z,2.33
2023-05-19T10:12:45.315Z,2.00
2023-05-19T10:15:13.288Z,2.00
2023-05-19T10:17:41.367Z,2.00
2023-05-19T10:20:12.022Z,2.00
2023-05-19T10:22:38.852Z,2.40
2023-05-19T10:25:06.999Z,2.00
2023-05-19T10:27:35.922Z,2.15
2023-05-19T10:30:11.469Z,2.23
2023-05-19T10:32:41.356Z,1.88
2023-05-19T10:35:36.927Z,2.42
2023-05-19T10:38:14.832Z,2.22
2023-05-19T10:40:51.214Z,2.10
2023-05-19T10:43:35.991Z,2.20
2023-05-19T10:46:04.113Z,2.22
2023-05-19T10:48:33.957Z,2.20
2023-05-19T10:51:02.406Z,2.10
2023-05-19T10:53:32.450Z,2.30
2023-05-19T10:56:02.213Z,2.30
2023-05-19T10:58:49.637Z,2.03
2023-05-19T11:01:17.453Z,2.17
2023-05-19T11:03:48.945Z,2.20
2023-05-19T11:06:26.144Z,2.05
2023-05-19T11:08:54.062Z,1.97
2023-05-19T11:11:20.989Z,2.00
2023-05-19T11:13:48.569Z,2.60
2023-05-19T11:16:18.979Z,2.22
2023-05-19T11:18:48.644Z,2.13
2023-05-19T11:21:15.290Z,2.20
2023-05-19T11:23:43.424Z,2.17
2023-05-19T11:26:10.063Z,2.28
2023-05-19T11:28:37.333Z,2.10
2023-05-19T11:31:05.035Z,2.10
2023-05-19T11:33:32.409Z,2.00
2023-05-19T11:35:59.267Z,2.20
2023-05-19T11:38:26.490Z,2.38
2023-05-19T11:40:55.228Z,1.92
2023-05-19T11:43:23.370Z,2.10
2023-05-19T11:45:50.029Z,2.30
2023-05-19T11:48:16.953Z,2.10
2023-05-19T11:50:43.832Z,2.15
2023-05-19T11:53:12.828Z,2.22
2023-05-19T11:55:42.504Z,1.80
2023-05-19T11:58:10.586Z,2.00
2023-05-19T12:00:40.277Z,1.98
2023-05-19T12:03:08.325Z,2.05
2023-05-19T12:05:40.770Z,2.40
2023-05-19T12:08:08.807Z,2.20
2023-05-19T12:10:35.550Z,2.27
2023-05-19T12:13:03.020Z,2.00
2023-05-19T12:15:31.947Z,2.10
2023-05-19T12:18:00.474Z,2.17
2023-05-19T12:20:28.574Z,2.25
2023-05-19T12:22:55.921Z,2.10
2023-05-19T12:25:23.388Z,1.80
2023-05-19T12:27:50.599Z,2.05
2023-05-19T12:30:17.191Z,1.90
2023-05-19T12:32:46.599Z,1.65
2023-05-19T12:35:15.788Z,1.97
2023-05-19T12:37:42.478Z,1.60
2023-05-19T12:40:10.224Z,1.90
2023-05-19T12:42:37.028Z,1.85
2023-05-19T12:45:04.669Z,1.95
2023-05-19T12:47:32.384Z,1.90
2023-05-19T12:50:04.241Z,1.60
2023-05-19T12:52:31.929Z,1.60
2023-05-19T12:54:59.361Z,1.90
2023-05-19T12:57:26.256Z,1.80
2023-05-19T12:59:53.423Z,1.73
2023-05-19T13:02:20.134Z,1.95
2023-05-19T13:04:46.819Z,1.92
2023-05-19T13:07:14.715Z,1.70
2023-05-19T13:09:41.300Z,1.92
2023-05-19T13:12:08.033Z,1.70
2023-05-19T13:14:34.593Z,1.70
2023-05-19T13:17:01.179Z,1.70
2023-05-19T13:19:27.791Z,1.63
2023-05-19T13:21:54.424Z,1.70
2023-05-19T13:24:22.318Z,1.83
2023-05-19T13:26:48.853Z,1.73
2023-05-19T13:29:15.542Z,1.73
2023-05-19T13:31:42.121Z,1.95
2023-05-19T13:34:08.732Z,1.80
2023-05-19T13:36:35.302Z,2.03
2023-05-19T13:39:02.105Z,1.80
2023-05-19T13:41:30.332Z,1.90
2023-05-19T13:43:58.335Z,1.83
2023-05-19T13:46:36.673Z,1.80
2023-05-19T13:49:10.376Z,1.67
2023-05-19T13:51:37.083Z,1.85
2023-05-19T13:54:03.841Z,1.73
2023-05-19T13:56:31.750Z,1.75
2023-05-19T13:58:58.388Z,1.60
2023-05-19T14:01:24.971Z,1.90
2023-05-19T14:03:51.832Z,1.42
2023-05-19T14:06:18.708Z,1.70
2023-05-19T14:08:45.625Z,1.50
2023-05-19T14:11:17.538Z,1.80
2023-05-19T14:13:45.464Z,1.50
2023-05-19T14:16:12.071Z,1.60
2023-05-19T14:18:38.910Z,1.65
2023-05-19T14:21:05.928Z,1.20
2023-05-19T14:23:32.632Z,1.52
2023-05-19T14:25:59.221Z,1.57
2023-05-19T14:28:25.861Z,1.40
2023-05-19T14:30:53.835Z,1.60
2023-05-19T14:33:20.744Z,1.63
2023-05-19T14:35:47.349Z,1.55
2023-05-19T14:38:14.040Z,1.50
2023-05-19T14:40:40.690Z,1.77
2023-05-19T14:43:07.543Z,1.60
2023-05-19T14:45:34.116Z,1.65
2023-05-19T14:48:02.350Z,1.83
2023-05-19T14:50:29.410Z,1.57
2023-05-19T14:52:56.646Z,1.52
2023-05-19T14:55:23.387Z,1.52
2023-05-19T14:57:50.136Z,1.70
2023-05-19T15:00:17.069Z,1.55
2023-05-19T15:02:44.176Z,1.37
2023-05-19T15:05:12.322Z,1.52
2023-05-19T15:07:39.097Z,1.55
2023-05-19T15:10:06.409Z,1.80
2023-05-19T15:12:33.147Z,1.65
2023-05-19T15:14:59.708Z,1.60
2023-05-19T15:17:26.588Z,1.70
2023-05-19T15:19:53.296Z,1.60
2023-05-19T15:22:21.254Z,1.60
2023-05-19T15:24:47.812Z,2.05
2023-05-19T15:27:14.518Z,1.60
2023-05-19T15:29:41.219Z,1.70
2023-05-19T15:32:08.649Z,1.70
2023-05-19T15:34:35.214Z,1.60
2023-05-19T15:37:01.886Z,1.48
2023-05-19T15:39:30.333Z,1.43
2023-05-19T15:41:56.901Z,1.80
2023-05-19T15:44:23.426Z,1.80
2023-05-19T15:46:49.960Z,1.67
2023-05-19T15:49:16.572Z,1.85
2023-05-19T15:51:43.302Z,1.60
2023-05-19T15:54:10.057Z,1.60
2023-05-19T15:56:37.996Z,1.73
2023-05-19T15:59:04.677Z,1.60
2023-05-19T16:01:31.449Z,1.60
2023-05-19T16:03:58.130Z,1.60
2023-05-19T16:06:24.906Z,1.70
2023-05-19T16:08:51.557Z,2.30
2023-05-19T16:11:18.107Z,1.95
2023-05-19T16:13:46.070Z,1.50
2023-05-19T16:16:12.642Z,1.63
2023-05-19T16:18:39.230Z,1.60
2023-05-19T16:21:06.090Z,1.52
2023-05-19T16:23:32.786Z,1.73
2023-05-19T16:25:59.331Z,1.52
2023-05-19T16:28:25.920Z,1.57
2023-05-19T16:30:57.086Z,1.73
2023-05-19T16:33:23.832Z,1.70
2023-05-19T16:35:50.434Z,1.60
2023-05-19T16:38:17.208Z,1.48
2023-05-19T16:40:43.826Z,1.47
2023-05-19T16:43:10.571Z,1.50
2023-05-19T16:45:37.170Z,1.67
2023-05-19T16:48:05.718Z,1.30
2023-05-19T16:50:32.332Z,1.50
2023-05-19T16:52:58.897Z,1.13
2023-05-19T16:55:25.567Z,1.40
2023-05-19T16:57:52.157Z,1.30
2023-05-19T17:00:19.478Z,1.65
2023-05-19T17:02:46.227Z,1.30
2023-05-19T17:05:14.204Z,1.23
2023-05-19T17:07:40.790Z,1.10
2023-05-19T17:10:08.582Z,1.23
2023-05-19T17:12:35.100Z,1.38
2023-05-19T17:15:01.684Z,1.13
2023-05-19T17:17:28.254Z,1.40
2023-05-19T17:19:54.839Z,1.52
2023-05-19T17:22:22.727Z,1.50
2023-05-19T17:24:49.306Z,1.10
2023-05-19T17:27:15.857Z,1.40
2023-05-19T17:29:42.454Z,1.50
2023-05-19T17:32:09.086Z,1.42
2023-05-19T17:34:35.715Z,1.38
2023-05-19T17:37:02.417Z,1.50
2023-05-19T17:39:30.313Z,1.50
2023-05-19T17:41:56.864Z,1.43
2023-05-19T17:44:23.436Z,1.40
2023-05-19T17:46:50.161Z,1.13
2023-05-19T17:49:16.766Z,1.50
2023-05-19T17:51:43.816Z,1.20
2023-05-19T17:54:11.071Z,1.40
2023-05-19T17:56:41.424Z,1.37
2023-05-19T17:59:08.544Z,1.37
2023-05-19T18:01:35.762Z,1.40
2023-05-19T18:04:02.947Z,1.70
2023-05-19T18:06:30.315Z,1.40
2023-05-19T18:08:58.732Z,1.52
2023-05-19T18:11:25.824Z,1.83
2023-05-19T18:13:53.729Z,1.45
2023-05-19T18:16:20.457Z,1.50
2023-05-19T18:18:47.105Z,1.52
2023-05-19T18:21:13.641Z,1.60
2023-05-19T18:23:40.661Z,1.50
2023-05-19T18:26:07.304Z,1.50
2023-05-19T18:28:34.066Z,1.80
2023-05-19T18:31:04.563Z,1.63
2023-05-19T18:33:31.440Z,1.48
2023-05-19T18:35:58.444Z,1.70
2023-05-19T18:38:25.021Z,1.40
2023-05-19T18:40:52.142Z,1.30
2023-05-19T18:43:19.137Z,1.65
2023-05-19T18:45:46.758Z,1.60
2023-05-19T18:48:14.773Z,1.45
2023-05-19T18:50:41.482Z,1.40
2023-05-19T18:53:08.027Z,1.65
2023-05-19T18:55:37.087Z,1.70
2023-05-19T18:58:04.941Z,1.67
2023-05-19T19:00:31.962Z,1.67
2023-05-19T19:02:58.721Z,1.43
2023-05-19T19:05:26.883Z,1.60
2023-05-19T19:07:53.484Z,1.70
2023-05-19T19:10:20.249Z,1.35
2023-05-19T19:12:46.849Z,1.55
2023-05-19T19:15:14.040Z,1.38
2023-05-19T19:17:40.824Z,1.30
2023-05-19T19:20:08.849Z,1.40
2023-05-19T19:22:37.065Z,1.60
2023-05-19T19:25:04.137Z,2.10
2023-05-19T19:27:30.691Z,1.70
2023-05-19T19:29:57.609Z,1.40
2023-05-19T19:32:24.208Z,1.80
2023-05-19T19:34:50.904Z,1.52
2023-05-19T19:37:17.598Z,1.80
2023-05-19T19:39:45.534Z,1.60
2023-05-19T19:42:12.215Z,1.63
2023-05-19T19:44:38.769Z,1.80
2023-05-19T19:47:05.501Z,1.77
2023-05-19T19:49:32.335Z,1.77
2023-05-19T19:51:59.033Z,1.90
2023-05-19T19:54:25.658Z,2.20
2023-05-19T19:56:53.621Z,1.70
2023-05-19T19:59:20.204Z,1.60
2023-05-19T20:01:46.773Z,1.70
2023-05-19T20:04:13.588Z,1.60
2023-05-19T20:06:40.213Z,1.88
2023-05-19T20:09:06.828Z,1.60
2023-05-19T20:11:33.455Z,1.63
2023-05-19T20:14:01.502Z,1.90
2023-05-19T20:16:28.132Z,1.77
2023-05-19T20:18:54.858Z,1.63
2023-05-19T20:21:21.651Z,1.80
2023-05-19T20:23:48.153Z,1.80
2023-05-19T20:26:14.868Z,1.77
2023-05-19T20:28:41.552Z,1.73
2023-05-19T20:31:09.513Z,1.95
2023-05-19T20:33:36.229Z,1.75
2023-05-19T20:36:02.827Z,1.70
2023-05-19T20:38:29.532Z,1.83
2023-05-19T20:40:56.089Z,2.00
2023-05-19T20:43:22.659Z,1.95
2023-05-19T20:45:49.477Z,2.10
2023-05-19T20:48:17.414Z,2.03
2023-05-19T20:50:44.127Z,1.70
2023-05-19T20:53:10.687Z,1.92
2023-05-19T20:55:38.411Z,2.05
2023-05-19T20:58:05.210Z,2.30
2023-05-19T21:00:32.200Z,2.17
2023-05-19T21:02:59.193Z,2.20
2023-05-19T21:05:27.185Z,2.10
2023-05-19T21:07:53.789Z,2.22
2023-05-19T21:10:20.478Z,2.33
2023-05-19T21:12:47.262Z,2.30
2023-05-19T21:15:14.154Z,2.43
2023-05-19T21:17:40.768Z,2.38
2023-05-19T21:20:08.753Z,2.65
2023-05-19T21:22:36.659Z,2.40
2023-05-19T21:25:03.392Z,2.70
2023-05-19T21:27:29.948Z,2.40
2023-05-19T21:29:56.533Z,2.17
2023-05-19T21:32:23.130Z,2.30
2023-05-19T21:34:49.698Z,2.67
2023-05-19T21:37:16.210Z,2.70
2023-05-19T21:39:44.345Z,2.50
2023-05-19T21:42:11.012Z,2.50
2023-05-19T21:44:37.673Z,2.40
2023-05-19T21:47:04.360Z,2.45
2023-05-19T21:49:31.103Z,2.50
2023-05-19T21:51:57.668Z,2.27
2023-05-19T21:54:24.388Z,2.33
2023-05-19T21:56:52.301Z,2.60
2023-05-19T21:59:18.860Z,2.63
2023-05-19T22:01:45.635Z,2.30
2023-05-19T22:04:12.193Z,2.75
2023-05-19T22:06:38.841Z,2.50
2023-05-19T22:09:05.378Z,2.30
2023-05-19T22:11:32.106Z,2.63
2023-05-19T22:14:00.006Z,2.50
2023-05-19T22:16:26.760Z,2.75
2023-05-19T22:18:53.438Z,2.70
2023-05-19T22:21:20.568Z,2.67
2023-05-19T22:23:47.090Z,2.60
2023-05-19T22:26:13.924Z,2.72
2023-05-19T22:28:40.647Z,2.85
2023-05-19T22:31:08.764Z,2.77
2023-05-19T22:33:35.309Z,2.65
2023-05-19T22:36:02.019Z,2.88
2023-05-19T22:38:28.569Z,2.88
2023-05-19T22:40:55.183Z,2.55
2023-05-19T22:43:21.732Z,2.93
2023-05-19T22:45:48.541Z,3.00
2023-05-19T22:48:16.621Z,3.03
2023-05-19T22:50:43.438Z,3.30
2023-05-19T22:53:10.140Z,3.10
2023-05-19T22:55:37.021Z,3.10
2023-05-19T22:58:03.719Z,2.90
2023-05-19T23:00:30.271Z,3.33
2023-05-19T23:02:56.876Z,3.05
2023-05-19T23:05:24.993Z,3.05
2023-05-19T23:07:51.620Z,3.17
2023-05-19T23:10:18.211Z,3.17
2023-05-19T23:12:44.817Z,3.05
2023-05-19T23:15:11.649Z,2.85
2023-05-19T23:17:38.319Z,3.40
2023-05-19T23:20:06.076Z,3.37
2023-05-19T23:22:33.975Z,3.20
2023-05-19T23:25:00.638Z,3.20
2023-05-19T23:27:27.152Z,3.50
2023-05-19T23:29:53.660Z,3.33
2023-05-19T23:32:20.158Z,3.22
2023-05-19T23:34:47.203Z,3.10
2023-05-19T23:37:13.724Z,3.40
2023-05-19T23:39:41.773Z,3.30
2023-05-19T23:42:08.344Z,3.15
2023-05-19T23:44:34.963Z,3.45
2023-05-19T23:47:01.769Z,3.40
2023-05-19T23:49:28.333Z,3.30
2023-05-19T23:51:54.889Z,3.15
2023-05-19T23:54:21.503Z,3.47
2023-05-19T23:56:49.534Z,3.20
2023-05-19T23:59:16.091Z,3.45
